createdAt,value
2022-10-28T00:00:56.344Z,100982.88
2022-10-28T00:03:24.337Z,100975.34
2022-10-28T00:05:54.447Z,100980.72
2022-10-28T00:08:22.352Z,100976.22
2022-10-28T00:10:52.200Z,100983.41
2022-10-28T00:13:20.064Z,100984.31
2022-10-28T00:15:47.948Z,100985.63
2022-10-28T00:18:15.868Z,100981.41
2022-10-28T00:20:45.155Z,100984.88
2022-10-28T00:23:13.027Z,100985.34
2022-10-28T00:25:40.932Z,100981.31
2022-10-28T00:28:10.199Z,100981.91
2022-10-28T00:30:40.982Z,100979.28
2022-10-28T00:33:08.855Z,100985.16
2022-10-28T00:35:36.771Z,100980.97
2022-10-28T00:38:04.776Z,100983.75
2022-10-28T00:40:35.858Z,100983.56
2022-10-28T00:43:03.734Z,100968.06
2022-10-28T00:45:32.998Z,100987.31
2022-10-28T00:48:03.472Z,100983.00
2022-10-28T00:50:43.467Z,100986.31
2022-10-28T00:53:15.622Z,100990.97
2022-10-28T00:55:45.410Z,100987.28
2022-10-28T00:58:13.704Z,100981.13
2022-10-28T01:00:43.086Z,100975.69
2022-10-28T01:03:11.009Z,100966.19
2022-10-28T01:05:43.240Z,100981.22
2022-10-28T01:08:11.912Z,100981.69
2022-10-28T01:11:02.824Z,100978.69
2022-10-28T01:13:40.345Z,100986.56
2022-10-28T01:16:20.708Z,100984.44
2022-10-28T01:18:58.395Z,100980.00
2022-10-28T01:22:13.828Z,100970.19
2022-10-28T01:25:20.545Z,100982.84
2022-10-28T01:28:08.134Z,100969.16
2022-10-28T01:30:53.641Z,100975.13
2022-10-28T01:33:27.868Z,100981.56
2022-10-28T01:36:00.422Z,100968.84
2022-10-28T01:38:36.060Z,100984.09
2022-10-28T01:41:09.066Z,100990.44
2022-10-28T01:43:46.360Z,100988.66
2022-10-28T01:46:20.400Z,100981.63
2022-10-28T01:48:52.893Z,100982.03
2022-10-28T01:51:25.286Z,100977.81
2022-10-28T01:53:56.203Z,100967.19
2022-10-28T01:56:28.242Z,100985.03
2022-10-28T01:59:00.229Z,100988.66
2022-10-28T02:01:31.383Z,100996.81
2022-10-28T02:03:59.619Z,100979.47
2022-10-28T02:06:30.668Z,100993.22
2022-10-28T02:09:25.091Z,100997.13
2022-10-28T02:12:21.294Z,100993.03
2022-10-28T02:15:10.902Z,100999.69
2022-10-28T02:17:52.104Z,100993.31
2022-10-28T02:20:28.468Z,101006.94
2022-10-28T02:23:06.581Z,100997.56
2022-10-28T02:25:43.262Z,100997.09
2022-10-28T02:28:15.361Z,100982.00
2022-10-28T02:30:48.048Z,100997.31
2022-10-28T02:33:21.565Z,100985.47
2022-10-28T02:35:53.700Z,100998.25
2022-10-28T02:38:26.221Z,100998.94
2022-10-28T02:41:00.226Z,100996.28
2022-10-28T02:43:31.781Z,100998.72
2022-10-28T02:46:02.739Z,100987.97
2022-10-28T02:48:34.803Z,101001.06
2022-10-28T02:51:08.842Z,100999.38
2022-10-28T02:53:46.371Z,101006.44
2022-10-28T02:56:16.879Z,101003.97
2022-10-28T02:58:46.600Z,101003.25
2022-10-28T03:01:14.796Z,101013.16
2022-10-28T03:03:44.908Z,101009.28
2022-10-28T03:06:12.811Z,101013.13
2022-10-28T03:08:40.720Z,101018.81
2022-10-28T03:11:08.617Z,101026.66
2022-10-28T03:13:36.508Z,101017.56
2022-10-28T03:16:04.565Z,101017.63
2022-10-28T03:18:32.421Z,101019.84
2022-10-28T03:21:01.688Z,101026.31
2022-10-28T03:23:29.602Z,101029.56
2022-10-28T03:25:57.461Z,101031.03
2022-10-28T03:28:25.396Z,101029.47
2022-10-28T03:30:53.279Z,101034.34
2022-10-28T03:33:21.197Z,101025.59
2022-10-28T03:35:49.088Z,101031.38
2022-10-28T03:38:18.476Z,101037.03
2022-10-28T03:40:48.865Z,101028.00
2022-10-28T03:43:16.955Z,101033.50
2022-10-28T03:45:45.303Z,101038.09
2022-10-28T03:48:13.182Z,101028.69
2022-10-28T03:50:41.065Z,101033.97
2022-10-28T03:53:08.966Z,101028.13
2022-10-28T03:55:41.295Z,101022.31
2022-10-28T03:58:09.164Z,101035.59
2022-10-28T04:00:37.079Z,101030.81
2022-10-28T04:03:05.064Z,101029.22
2022-10-28T04:05:32.957Z,101029.47
2022-10-28T04:08:00.787Z,101028.94
2022-10-28T04:10:28.639Z,101031.38
2022-10-28T04:13:02.267Z,101036.09
2022-10-28T04:15:30.247Z,101025.50
2022-10-28T04:17:58.217Z,101027.50
2022-10-28T04:20:27.273Z,101033.41
2022-10-28T04:22:57.218Z,101012.00
2022-10-28T04:25:27.028Z,101035.09
2022-10-28T04:27:55.665Z,101042.03
2022-10-28T04:30:25.565Z,101038.16
2022-10-28T04:32:53.591Z,101034.13
2022-10-28T04:35:21.543Z,101035.88
2022-10-28T04:37:49.396Z,101032.59
2022-10-28T04:40:17.450Z,101030.59
2022-10-28T04:42:45.423Z,101024.16
2022-10-28T04:45:13.399Z,101032.50
2022-10-28T04:47:42.616Z,101029.31
2022-10-28T04:50:10.820Z,101031.56
2022-10-28T04:52:38.884Z,101031.91
2022-10-28T04:55:07.562Z,101019.84
2022-10-28T04:57:35.480Z,101037.72
2022-10-28T05:00:03.568Z,101023.91
2022-10-28T05:02:31.991Z,101030.41
2022-10-28T05:05:03.616Z,101035.13
2022-10-28T05:07:31.703Z,101030.59
2022-10-28T05:09:59.606Z,101040.34
2022-10-28T05:12:27.497Z,101040.28
2022-10-28T05:14:55.374Z,101042.94
2022-10-28T05:17:23.260Z,101044.63
2022-10-28T05:19:51.224Z,101044.38
2022-10-28T05:22:20.483Z,101049.69
2022-10-28T05:24:48.394Z,101057.63
2022-10-28T05:27:16.997Z,101060.72
2022-10-28T05:29:44.864Z,101049.59
2022-10-28T05:32:12.811Z,101060.38
2022-10-28T05:34:40.689Z,101069.16
2022-10-28T05:37:08.614Z,101076.69
2022-10-28T05:39:37.900Z,101069.31
2022-10-28T05:42:05.958Z,101062.84
2022-10-28T05:44:33.837Z,101081.28
2022-10-28T05:47:01.706Z,101087.41
2022-10-28T05:49:29.621Z,101086.19
2022-10-28T05:51:57.501Z,101082.78
2022-10-28T05:54:25.483Z,101086.16
2022-10-28T05:56:54.908Z,101087.25
2022-10-28T05:59:22.810Z,101081.59
2022-10-28T06:01:50.965Z,101088.28
2022-10-28T06:04:18.882Z,101080.41
2022-10-28T06:06:46.848Z,101092.53
2022-10-28T06:09:14.744Z,101094.56
2022-10-28T06:11:41.129Z,101096.38
2022-10-28T06:14:10.385Z,101092.00
2022-10-28T06:16:38.327Z,101096.88
2022-10-28T06:19:06.201Z,101102.47
2022-10-28T06:21:34.126Z,101099.03
2022-10-28T06:24:02.093Z,101107.16
2022-10-28T06:26:29.931Z,101102.47
2022-10-28T06:28:57.835Z,101100.63
2022-10-28T06:31:27.104Z,101106.97
2022-10-28T06:33:56.244Z,101106.09
2022-10-28T06:36:24.193Z,101099.97
2022-10-28T06:38:52.867Z,101104.66
2022-10-28T06:41:20.728Z,101083.50
2022-10-28T06:43:48.622Z,101104.94
2022-10-28T06:46:16.616Z,101100.53
2022-10-28T06:48:47.410Z,101101.03
2022-10-28T06:51:16.975Z,101091.19
2022-10-28T06:53:44.926Z,101109.16
2022-10-28T06:56:12.774Z,101100.16
2022-10-28T06:58:40.789Z,101102.13
2022-10-28T07:01:09.115Z,101108.03
2022-10-28T07:03:37.103Z,101101.09
2022-10-28T07:06:07.212Z,101103.28
2022-10-28T07:08:35.166Z,101101.53
2022-10-28T07:11:03.292Z,101111.75
2022-10-28T07:13:31.175Z,101092.75
2022-10-28T07:16:00.717Z,101093.38
2022-10-28T07:18:30.358Z,101092.69
2022-10-28T07:20:59.761Z,101095.19
2022-10-28T07:23:29.090Z,101098.34
2022-10-28T07:25:57.714Z,101096.78
2022-10-28T07:28:26.905Z,101095.28
2022-10-28T07:30:54.877Z,101091.31
2022-10-28T07:33:22.783Z,101100.19
2022-10-28T07:35:50.685Z,101102.06
2022-10-28T07:38:18.725Z,101099.03
2022-10-28T07:40:47.965Z,101101.44
2022-10-28T07:43:15.869Z,101106.31
2022-10-28T07:45:43.735Z,101099.78
2022-10-28T07:48:11.659Z,101096.09
2022-10-28T07:50:41.468Z,101088.81
2022-10-28T07:53:09.486Z,101100.69
2022-10-28T07:55:37.471Z,101097.94
2022-10-28T07:58:06.732Z,101096.59
2022-10-28T08:00:34.660Z,101081.59
2022-10-28T08:03:03.729Z,101098.00
2022-10-28T08:05:31.705Z,101087.31
2022-10-28T08:07:59.583Z,101079.78
2022-10-28T08:10:27.917Z,101092.78
2022-10-28T08:12:57.317Z,101087.63
2022-10-28T08:15:27.455Z,101082.69
2022-10-28T08:17:55.842Z,101087.16
2022-10-28T08:20:24.593Z,101088.00
2022-10-28T08:22:52.904Z,101065.34
2022-10-28T08:25:21.044Z,101064.91
2022-10-28T08:27:49.146Z,101083.34
2022-10-28T08:30:17.122Z,101072.91
2022-10-28T08:32:46.397Z,101075.94
2022-10-28T08:35:14.553Z,101065.22
2022-10-28T08:37:46.095Z,101076.38
2022-10-28T08:40:14.786Z,101076.44
2022-10-28T08:42:47.481Z,101076.75
2022-10-28T08:45:41.471Z,101069.97
2022-10-28T08:48:21.044Z,101066.97
2022-10-28T08:50:54.165Z,101067.88
2022-10-28T08:53:27.712Z,101067.00
2022-10-28T08:56:01.009Z,101068.72
2022-10-28T08:58:33.979Z,101050.47
2022-10-28T09:01:02.496Z,101054.31
2022-10-28T09:03:36.800Z,101057.41
2022-10-28T09:06:08.735Z,101052.34
2022-10-28T09:08:38.768Z,101035.06
2022-10-28T09:11:27.632Z,101048.13
2022-10-28T09:14:09.350Z,101047.31
2022-10-28T09:16:43.852Z,101040.56
2022-10-28T09:19:24.385Z,101016.09
2022-10-28T09:21:57.242Z,101027.16
2022-10-28T09:24:43.534Z,101035.19
2022-10-28T09:27:23.461Z,101027.81
2022-10-28T09:30:01.946Z,101030.44
2022-10-28T09:32:41.071Z,101022.13
2022-10-28T09:35:14.887Z,101023.66
2022-10-28T09:37:48.872Z,101021.56
2022-10-28T09:40:21.151Z,101011.94
2022-10-28T09:42:58.557Z,101005.09
2022-10-28T09:45:29.610Z,100987.00
2022-10-28T09:48:02.015Z,100998.72
2022-10-28T09:50:33.725Z,100996.63
2022-10-28T09:53:12.866Z,100996.91
2022-10-28T09:55:40.933Z,100994.50
2022-10-28T09:58:11.065Z,100989.59
2022-10-28T10:00:42.507Z,100978.19
2022-10-28T10:03:10.446Z,100984.88
2022-10-28T10:05:44.523Z,100986.75
2022-10-28T10:08:15.950Z,100987.47
2022-10-28T10:10:51.165Z,100975.91
2022-10-28T10:13:23.683Z,100975.91
2022-10-28T10:15:55.955Z,100965.06
2022-10-28T10:18:27.028Z,100965.88
2022-10-28T10:20:58.663Z,100967.22
2022-10-28T10:23:32.130Z,100970.88
2022-10-28T10:26:04.625Z,100963.06
2022-10-28T10:28:37.850Z,100968.53
2022-10-28T10:31:07.189Z,100954.84
2022-10-28T10:33:37.437Z,100951.31
2022-10-28T10:36:15.856Z,100954.38
2022-10-28T10:38:49.315Z,100954.38
2022-10-28T10:41:35.413Z,100945.69
2022-10-28T10:44:03.355Z,100939.84
2022-10-28T10:46:31.325Z,100937.41
2022-10-28T10:49:12.664Z,100935.03
2022-10-28T10:51:51.832Z,100930.97
2022-10-28T10:54:20.235Z,100930.31
2022-10-28T10:56:48.299Z,100932.63
2022-10-28T10:59:24.194Z,100923.59
2022-10-28T11:01:52.677Z,100921.53
2022-10-28T11:04:24.599Z,100924.66
2022-10-28T11:06:56.258Z,100906.53
2022-10-28T11:09:42.456Z,100918.09
2022-10-28T11:12:17.926Z,100915.44
2022-10-28T11:14:56.938Z,100907.53
2022-10-28T11:17:27.883Z,100917.69
2022-10-28T11:19:58.798Z,100911.75
2022-10-28T11:22:40.859Z,100916.19
2022-10-28T11:25:37.220Z,100911.34
2022-10-28T11:28:27.664Z,100915.03
2022-10-28T11:33:49.037Z,100901.44
2022-10-28T11:36:25.689Z,100899.66
2022-10-28T11:39:14.332Z,100899.53
2022-10-28T11:41:54.296Z,100891.81
2022-10-28T11:44:34.301Z,100886.81
2022-10-28T11:47:15.753Z,100888.28
2022-10-28T11:50:09.047Z,100887.16
2022-10-28T11:52:50.824Z,100881.03
2022-10-28T11:55:30.763Z,100872.06
2022-10-28T12:00:48.443Z,100867.25
2022-10-28T12:03:39.256Z,100870.44
2022-10-28T12:06:16.342Z,100856.63
2022-10-28T12:11:59.407Z,100859.09
2022-10-28T12:14:38.415Z,100840.28
2022-10-28T12:17:14.619Z,100846.44
2022-10-28T12:19:49.173Z,100848.78
2022-10-28T12:22:24.813Z,100843.59
2022-10-28T12:24:54.499Z,100845.09
2022-10-28T12:27:28.145Z,100845.63
2022-10-28T12:30:01.209Z,100827.50
2022-10-28T12:32:32.838Z,100823.16
2022-10-28T12:35:06.530Z,100832.97
2022-10-28T12:37:43.394Z,100838.16
2022-10-28T12:40:18.421Z,100826.41
2022-10-28T12:42:54.900Z,100824.06
2022-10-28T12:45:24.196Z,100818.56
2022-10-28T12:48:00.474Z,100814.28
2022-10-28T12:50:33.501Z,100819.81
2022-10-28T12:53:27.391Z,100816.50
2022-10-28T12:56:00.013Z,100819.13
2022-10-28T12:58:34.493Z,100809.63
2022-10-28T13:01:05.380Z,100816.59
2022-10-28T13:03:33.821Z,100809.75
2022-10-28T13:09:24.721Z,100806.25
2022-10-28T13:12:17.157Z,100809.78
2022-10-28T13:15:21.461Z,100810.50
2022-10-28T13:18:13.032Z,100813.31
2022-10-28T13:20:48.417Z,100810.34
2022-10-28T13:23:24.484Z,100806.50
2022-10-28T13:26:04.242Z,100803.78
2022-10-28T13:28:34.946Z,100799.47
2022-10-28T13:31:07.074Z,100803.59
2022-10-28T13:33:37.545Z,100800.81
2022-10-28T13:36:12.989Z,100807.66
2022-10-28T13:38:41.714Z,100801.16
2022-10-28T13:41:33.241Z,100802.31
2022-10-28T13:44:24.103Z,100797.19
2022-10-28T13:47:25.307Z,100798.69
2022-10-28T13:50:14.966Z,100805.84
2022-10-28T13:52:44.452Z,100797.03
2022-10-28T13:55:27.356Z,100799.72
2022-10-28T13:58:01.791Z,100787.50
2022-10-28T14:00:38.957Z,100800.47
2022-10-28T14:03:19.795Z,100797.81
2022-10-28T14:05:57.495Z,100790.53
2022-10-28T14:08:29.677Z,100791.50
2022-10-28T14:11:05.146Z,100794.00
2022-10-28T14:13:36.089Z,100788.69
2022-10-28T14:16:22.447Z,100766.19
2022-10-28T14:18:58.168Z,100789.97
2022-10-28T14:21:26.291Z,100781.19
2022-10-28T14:24:20.379Z,100785.50
2022-10-28T14:27:28.060Z,100788.97
2022-10-28T14:30:16.586Z,100776.47
2022-10-28T14:32:46.293Z,100784.94
2022-10-28T14:35:29.980Z,100772.81
2022-10-28T14:38:36.585Z,100777.94
2022-10-28T14:41:26.689Z,100777.06
2022-10-28T14:44:06.895Z,100788.06
2022-10-28T14:46:48.339Z,100771.03
2022-10-28T14:49:22.322Z,100778.00
2022-10-28T14:51:52.394Z,100783.97
2022-10-28T14:54:29.113Z,100773.28
2022-10-28T14:56:57.775Z,100773.94
2022-10-28T14:59:28.491Z,100782.41
2022-10-28T15:02:05.249Z,100784.91
2022-10-28T15:04:33.291Z,100782.72
2022-10-28T15:07:03.601Z,100773.53
2022-10-28T15:09:34.873Z,100782.34
2022-10-28T15:12:06.728Z,100778.19
2022-10-28T15:14:38.284Z,100780.47
2022-10-28T15:17:14.234Z,100777.47
2022-10-28T15:19:42.821Z,100775.28
2022-10-28T15:22:18.271Z,100776.75
2022-10-28T15:24:59.819Z,100776.06
2022-10-28T15:27:30.647Z,100777.53
2022-10-28T15:29:58.617Z,100777.97
2022-10-28T15:32:31.748Z,100779.72
2022-10-28T15:34:59.792Z,100776.41
2022-10-28T15:37:31.269Z,100774.22
2022-10-28T15:40:20.752Z,100778.28
2022-10-28T15:42:53.981Z,100781.03
2022-10-28T15:45:26.167Z,100778.00
2022-10-28T15:47:55.664Z,100770.25
2022-10-28T15:50:34.310Z,100782.50
2022-10-28T15:53:39.704Z,100773.47
2022-10-28T15:56:20.634Z,100774.00
2022-10-28T15:59:01.229Z,100784.91
2022-10-28T16:01:31.772Z,100783.56
2022-10-28T16:04:00.499Z,100779.16
2022-10-28T16:06:31.641Z,100783.78
2022-10-28T16:09:07.931Z,100777.09
2022-10-28T16:11:39.469Z,100781.03
2022-10-28T16:14:35.732Z,100780.81
2022-10-28T16:17:12.762Z,100781.09
2022-10-28T16:19:43.894Z,100773.16
2022-10-28T16:22:14.256Z,100781.97
2022-10-28T16:24:43.816Z,100775.63
2022-10-28T16:27:18.726Z,100786.69
2022-10-28T16:29:46.684Z,100785.59
2022-10-28T16:32:16.300Z,100783.09
2022-10-28T16:34:44.203Z,100791.31
2022-10-28T16:37:22.375Z,100789.56
2022-10-28T16:39:51.679Z,100792.22
2022-10-28T16:42:20.521Z,100780.66
2022-10-28T16:44:48.615Z,100793.06
2022-10-28T16:47:18.412Z,100791.25
2022-10-28T16:49:52.590Z,100799.63
2022-10-28T16:52:26.193Z,100798.38
2022-10-28T16:54:56.365Z,100803.16
2022-10-28T16:59:57.641Z,100802.66
2022-10-28T17:02:28.935Z,100790.44
2022-10-28T17:04:57.292Z,100809.66
2022-10-28T17:07:25.177Z,100806.44
2022-10-28T17:09:53.759Z,100809.25
2022-10-28T17:12:24.894Z,100816.31
2022-10-28T17:14:53.218Z,100811.59
2022-10-28T17:17:21.549Z,100818.38
2022-10-28T17:19:49.432Z,100816.97
2022-10-28T17:22:17.359Z,100811.53
2022-10-28T17:24:46.100Z,100808.75
2022-10-28T17:27:14.018Z,100809.72
2022-10-28T17:29:43.336Z,100807.88
2022-10-28T17:32:11.306Z,100820.69
2022-10-28T17:34:39.396Z,100818.06
2022-10-28T17:37:07.881Z,100827.78
2022-10-28T17:39:35.978Z,100828.56
2022-10-28T17:42:04.178Z,100827.16
2022-10-28T17:44:32.103Z,100827.56
2022-10-28T17:47:01.373Z,100821.78
2022-10-28T17:49:29.958Z,100832.56
2022-10-28T17:51:57.895Z,100822.75
2022-10-28T17:54:25.781Z,100825.38
2022-10-28T17:56:53.677Z,100833.63
2022-10-28T17:59:21.566Z,100829.16
2022-10-28T18:01:49.699Z,100828.63
2022-10-28T18:04:20.207Z,100823.88
2022-10-28T18:06:48.235Z,100821.94
2022-10-28T18:09:16.128Z,100825.66
2022-10-28T18:11:44.082Z,100823.16
2022-10-28T18:14:12.088Z,100822.97
2022-10-28T18:16:40.041Z,100820.47
2022-10-28T18:19:08.607Z,100822.66
2022-10-28T18:21:37.878Z,100823.88
2022-10-28T18:24:06.158Z,100817.38
2022-10-28T18:26:35.716Z,100811.00
2022-10-28T18:29:04.872Z,100815.44
2022-10-28T18:31:33.575Z,100821.44
2022-10-28T18:34:02.150Z,100824.47
2022-10-28T18:36:34.484Z,100822.22
2022-10-28T18:39:05.464Z,100823.16
2022-10-28T18:41:34.589Z,100818.28
2022-10-28T18:44:05.059Z,100808.31
2022-10-28T18:46:35.013Z,100829.63
2022-10-28T18:49:03.140Z,100823.41
2022-10-28T18:51:31.147Z,100808.47
2022-10-28T18:53:59.184Z,100826.28
2022-10-28T18:56:30.200Z,100826.28
2022-10-28T18:59:00.119Z,100833.94
2022-10-28T19:01:29.558Z,100834.78
2022-10-28T19:03:59.164Z,100829.28
2022-10-28T19:06:29.863Z,100833.59
2022-10-28T19:08:59.034Z,100831.88
2022-10-28T19:11:30.261Z,100831.78
2022-10-28T19:13:59.024Z,100836.81
2022-10-28T19:16:27.477Z,100836.91
2022-10-28T19:18:57.163Z,100836.88
2022-10-28T19:21:25.762Z,100837.13
2022-10-28T19:23:54.171Z,100827.31
2022-10-28T19:26:23.673Z,100838.25
2022-10-28T19:28:53.679Z,100847.81
2022-10-28T19:31:23.717Z,100842.47
2022-10-28T19:33:52.905Z,100850.59
2022-10-28T19:36:22.917Z,100846.75
2022-10-28T19:38:53.704Z,100863.88
2022-10-28T19:41:23.975Z,100859.97
2022-10-28T19:43:58.138Z,100873.50
2022-10-28T19:46:27.660Z,100868.34
2022-10-28T19:48:57.402Z,100859.63
2022-10-28T19:51:28.214Z,100873.28
2022-10-28T19:53:57.980Z,100879.47
2022-10-28T19:56:27.033Z,100877.66
2022-10-28T19:58:57.849Z,100880.88
2022-10-28T20:01:27.881Z,100884.56
2022-10-28T20:03:56.692Z,100868.59
2022-10-28T20:06:26.356Z,100885.41
2022-10-28T20:08:54.733Z,100880.78
2022-10-28T20:11:26.330Z,100882.69
2022-10-28T20:13:57.590Z,100887.72
2022-10-28T20:16:26.221Z,100884.34
2022-10-28T20:18:55.192Z,100874.88
2022-10-28T20:21:24.919Z,100888.13
2022-10-28T20:23:54.723Z,100885.84
2022-10-28T20:26:24.315Z,100888.06
2022-10-28T20:28:52.328Z,100887.28
2022-10-28T20:31:23.403Z,100888.22
2022-10-28T20:33:52.727Z,100884.03
2022-10-28T20:36:25.540Z,100879.94
2022-10-28T20:38:57.250Z,100886.34
2022-10-28T20:41:26.593Z,100886.88
2022-10-28T20:43:55.252Z,100889.41
2022-10-28T20:46:26.035Z,100895.59
2022-10-28T20:48:54.906Z,100889.41
2022-10-28T20:51:23.547Z,100901.88
2022-10-28T20:53:51.701Z,100903.03
2022-10-28T20:56:21.157Z,100899.97
2022-10-28T20:58:49.039Z,100905.69
2022-10-28T21:01:19.781Z,100913.59
2022-10-28T21:03:49.703Z,100920.31
2022-10-28T21:06:19.358Z,100913.09
2022-10-28T21:08:47.249Z,100902.44
2022-10-28T21:11:16.560Z,100903.44
2022-10-28T21:13:45.570Z,100926.59
2022-10-28T21:16:14.296Z,100918.28
2022-10-28T21:18:42.467Z,100899.88
2022-10-28T21:21:12.361Z,100895.44
2022-10-28T21:23:40.456Z,100910.41
2022-10-28T21:26:09.674Z,100900.13
2022-10-28T21:28:37.818Z,100895.31
2022-10-28T21:31:07.402Z,100897.59
2022-10-28T21:33:36.677Z,100906.78
2022-10-28T21:36:07.340Z,100911.16
2022-10-28T21:38:37.104Z,100907.13
2022-10-28T21:41:07.103Z,100901.50
2022-10-28T21:43:37.557Z,100907.88
2022-10-28T21:46:06.289Z,100907.63
2022-10-28T21:48:36.242Z,100901.16
2022-10-28T21:51:08.649Z,100885.91
2022-10-28T21:53:41.335Z,100889.19
2022-10-28T21:56:16.314Z,100898.44
2022-10-28T21:58:45.762Z,100900.78
2022-10-28T22:01:15.637Z,100905.38
2022-10-28T22:03:43.758Z,100909.00
2022-10-28T22:06:12.243Z,100894.69
2022-10-28T22:08:41.520Z,100893.63
2022-10-28T22:11:13.092Z,100888.59
2022-10-28T22:13:41.530Z,100872.00
2022-10-28T22:16:14.609Z,100900.13
2022-10-28T22:18:42.916Z,100896.97
2022-10-28T22:21:13.419Z,100877.50
2022-10-28T22:23:42.940Z,100890.75
2022-10-28T22:26:14.450Z,100888.59
2022-10-28T22:28:42.678Z,100898.53
2022-10-28T22:31:12.799Z,100896.56
2022-10-28T22:33:41.285Z,100897.41
2022-10-28T22:36:11.519Z,100888.16
2022-10-28T22:38:39.867Z,100884.22
2022-10-28T22:41:13.118Z,100883.94
2022-10-28T22:43:42.340Z,100891.41
2022-10-28T22:46:10.841Z,100884.22
2022-10-28T22:48:39.019Z,100891.81
2022-10-28T22:51:07.054Z,100888.53
2022-10-28T22:53:35.066Z,100885.00
2022-10-28T22:56:03.084Z,100888.25
2022-10-28T22:58:32.898Z,100884.41
2022-10-28T23:01:07.869Z,100886.22
2022-10-28T23:03:37.151Z,100877.78
2022-10-28T23:06:05.713Z,100880.47
2022-10-28T23:08:33.855Z,100879.84
2022-10-28T23:11:02.051Z,100881.06
2022-10-28T23:13:30.049Z,100880.03
2022-10-28T23:16:04.221Z,100884.22
2022-10-28T23:18:32.125Z,100884.16
2022-10-28T23:21:05.243Z,100878.81
2022-10-28T23:23:33.165Z,100878.13
2022-10-28T23:26:01.081Z,100878.34
2022-10-28T23:28:29.078Z,100876.50
2022-10-28T23:31:01.868Z,100848.97
2022-10-28T23:33:30.946Z,100872.66
2022-10-28T23:36:00.088Z,100878.97
2022-10-28T23:38:28.325Z,100880.28
2022-10-28T23:41:00.652Z,100888.25
2022-10-28T23:43:28.880Z,100876.84
2022-10-28T23:45:57.138Z,100871.25
2022-10-28T23:48:27.361Z,100879.84
2022-10-28T23:50:56.089Z,100880.84
2022-10-28T23:53:24.698Z,100879.09
2022-10-28T23:55:53.244Z,100860.00
2022-10-28T23:58:22.235Z,100874.16
